sensor_id;sensor_type;location;lat;lon;timestamp;P1;durP1;ratioP1;P2;durP2;ratioP2
21188;SDS011;39071;52.420;20.896;2022-12-18T00:01:41;5.93;;;1.60;;
21188;SDS011;39071;52.420;20.896;2022-12-18T00:04:07;5.17;;;2.07;;
21188;SDS011;39071;52.420;20.896;2022-12-18T00:06:43;5.10;;;1.90;;
21188;SDS011;39071;52.420;20.896;2022-12-18T00:09:09;12.67;;;3.60;;
21188;SDS011;39071;52.420;20.896;2022-12-18T00:11:35;4.73;;;2.03;;
21188;SDS011;39071;52.420;20.896;2022-12-18T00:14:01;1.00;;;0.93;;
21188;SDS011;39071;52.420;20.896;2022-12-18T00:16:27;1.60;;;1.50;;
21188;SDS011;39071;52.420;20.896;2022-12-18T00:18:56;3.83;;;2.37;;
21188;SDS011;39071;52.420;20.896;2022-12-18T00:21:22;2.10;;;1.33;;
21188;SDS011;39071;52.420;20.896;2022-12-18T00:23:48;3.30;;;2.07;;
21188;SDS011;39071;52.420;20.896;2022-12-18T00:26:16;2.67;;;2.17;;
21188;SDS011;39071;52.420;20.896;2022-12-18T00:28:49;5.37;;;1.80;;
21188;SDS011;39071;52.420;20.896;2022-12-18T00:31:16;2.20;;;1.83;;
21188;SDS011;39071;52.420;20.896;2022-12-18T00:33:43;2.00;;;0.60;;
21188;SDS011;39071;52.420;20.896;2022-12-18T00:36:10;3.83;;;1.60;;
21188;SDS011;39071;52.420;20.896;2022-12-18T00:38:39;3.43;;;2.43;;
21188;SDS011;39071;52.420;20.896;2022-12-18T00:41:05;6.03;;;2.47;;
21188;SDS011;39071;52.420;20.896;2022-12-18T00:43:31;3.50;;;2.07;;
21188;SDS011;39071;52.420;20.896;2022-12-18T00:45:58;8.77;;;1.63;;
21188;SDS011;39071;52.420;20.896;2022-12-18T00:48:24;5.67;;;2.57;;
21188;SDS011;39071;52.420;20.896;2022-12-18T00:50:50;1.90;;;1.73;;
21188;SDS011;39071;52.420;20.896;2022-12-18T00:53:16;5.50;;;2.33;;
21188;SDS011;39071;52.420;20.896;2022-12-18T00:55:42;2.67;;;1.87;;
21188;SDS011;39071;52.420;20.896;2022-12-18T00:58:09;2.53;;;1.83;;
21188;SDS011;39071;52.420;20.896;2022-12-18T01:00:35;5.27;;;2.10;;
21188;SDS011;39071;52.420;20.896;2022-12-18T01:03:01;4.03;;;2.27;;
21188;SDS011;39071;52.420;20.896;2022-12-18T01:05:27;4.17;;;1.97;;
21188;SDS011;39071;52.420;20.896;2022-12-18T01:07:53;4.07;;;1.97;;
21188;SDS011;39071;52.420;20.896;2022-12-18T01:10:20;6.33;;;2.00;;
21188;SDS011;39071;52.420;20.896;2022-12-18T01:12:46;5.63;;;1.70;;
21188;SDS011;39071;52.420;20.896;2022-12-18T01:15:12;1.00;;;0.90;;
21188;SDS011;39071;52.420;20.896;2022-12-18T01:17:39;1.00;;;1.00;;
21188;SDS011;39071;52.420;20.896;2022-12-18T01:20:04;6.37;;;2.17;;
21188;SDS011;39071;52.420;20.896;2022-12-18T01:22:31;8.60;;;2.90;;
21188;SDS011;39071;52.420;20.896;2022-12-18T01:24:56;6.20;;;2.23;;
21188;SDS011;39071;52.420;20.896;2022-12-18T01:27:22;1.80;;;1.33;;
21188;SDS011;39071;52.420;20.896;2022-12-18T01:29:48;3.07;;;1.40;;
21188;SDS011;39071;52.420;20.896;2022-12-18T01:32:14;2.03;;;1.53;;
21188;SDS011;39071;52.420;20.896;2022-12-18T01:34:40;6.93;;;1.67;;
21188;SDS011;39071;52.420;20.896;2022-12-18T01:37:06;5.60;;;2.47;;
21188;SDS011;39071;52.420;20.896;2022-12-18T01:39:32;4.07;;;1.50;;
21188;SDS011;39071;52.420;20.896;2022-12-18T01:42:19;5.80;;;1.73;;
21188;SDS011;39071;52.420;20.896;2022-12-18T01:44:54;0.77;;;0.67;;
21188;SDS011;39071;52.420;20.896;2022-12-18T01:49:59;3.83;;;1.77;;
21188;SDS011;39071;52.420;20.896;2022-12-18T01:52:47;5.53;;;1.50;;
21188;SDS011;39071;52.420;20.896;2022-12-18T01:55:16;2.07;;;1.87;;
21188;SDS011;39071;52.420;20.896;2022-12-18T01:57:45;2.90;;;2.07;;
21188;SDS011;39071;52.420;20.896;2022-12-18T02:00:16;1.50;;;0.90;;
21188;SDS011;39071;52.420;20.896;2022-12-18T02:02:44;2.03;;;1.93;;
21188;SDS011;39071;52.420;20.896;2022-12-18T02:05:11;2.47;;;0.83;;
21188;SDS011;39071;52.420;20.896;2022-12-18T02:10:38;8.00;;;2.20;;
21188;SDS011;39071;52.420;20.896;2022-12-18T02:13:28;5.63;;;2.03;;
21188;SDS011;39071;52.420;20.896;2022-12-18T02:16:20;2.53;;;1.40;;
21188;SDS011;39071;52.420;20.896;2022-12-18T02:18:51;3.43;;;1.33;;
21188;SDS011;39071;52.420;20.896;2022-12-18T02:26:47;6.00;;;2.40;;
21188;SDS011;39071;52.420;20.896;2022-12-18T02:29:40;2.17;;;2.03;;
21188;SDS011;39071;52.420;20.896;2022-12-18T02:32:14;3.40;;;1.80;;
21188;SDS011;39071;52.420;20.896;2022-12-18T02:34:48;5.33;;;2.87;;
21188;SDS011;39071;52.420;20.896;2022-12-18T02:37:16;3.53;;;3.07;;
21188;SDS011;39071;52.420;20.896;2022-12-18T02:39:44;4.63;;;1.00;;
21188;SDS011;39071;52.420;20.896;2022-12-18T02:42:13;2.90;;;1.40;;
21188;SDS011;39071;52.420;20.896;2022-12-18T02:44:46;9.47;;;3.27;;
21188;SDS011;39071;52.420;20.896;2022-12-18T02:47:14;2.50;;;1.63;;
21188;SDS011;39071;52.420;20.896;2022-12-18T02:49:53;2.90;;;0.90;;
21188;SDS011;39071;52.420;20.896;2022-12-18T03:03:45;1.73;;;1.23;;
21188;SDS011;39071;52.420;20.896;2022-12-18T03:06:21;2.73;;;0.60;;
21188;SDS011;39071;52.420;20.896;2022-12-18T03:08:54;2.67;;;2.37;;
21188;SDS011;39071;52.420;20.896;2022-12-18T03:11:24;1.80;;;1.70;;
21188;SDS011;39071;52.420;20.896;2022-12-18T03:14:12;2.67;;;0.87;;
21188;SDS011;39071;52.420;20.896;2022-12-18T03:16:41;0.77;;;0.67;;
21188;SDS011;39071;52.420;20.896;2022-12-18T03:19:10;0.60;;;0.60;;
21188;SDS011;39071;52.420;20.896;2022-12-18T03:21:42;1.37;;;1.27;;
21188;SDS011;39071;52.420;20.896;2022-12-18T03:24:12;0.60;;;0.60;;
21188;SDS011;39071;52.420;20.896;2022-12-18T03:26:40;3.00;;;1.00;;
21188;SDS011;39071;52.420;20.896;2022-12-18T03:29:11;5.20;;;1.00;;
21188;SDS011;39071;52.420;20.896;2022-12-18T03:31:42;2.73;;;1.20;;
21188;SDS011;39071;52.420;20.896;2022-12-18T03:34:15;1.33;;;1.23;;
21188;SDS011;39071;52.420;20.896;2022-12-18T03:36:45;0.77;;;0.70;;
21188;SDS011;39071;52.420;20.896;2022-12-18T03:39:11;0.70;;;0.70;;
21188;SDS011;39071;52.420;20.896;2022-12-18T03:47:05;1.17;;;0.87;;
21188;SDS011;39071;52.420;20.896;2022-12-18T03:49:38;1.13;;;0.50;;
21188;SDS011;39071;52.420;20.896;2022-12-18T03:55:12;2.47;;;0.50;;
21188;SDS011;39071;52.420;20.896;2022-12-18T03:57:38;4.50;;;1.37;;
21188;SDS011;39071;52.420;20.896;2022-12-18T04:00:08;7.93;;;1.07;;
21188;SDS011;39071;52.420;20.896;2022-12-18T04:02:37;3.87;;;1.97;;
21188;SDS011;39071;52.420;20.896;2022-12-18T04:05:05;0.77;;;0.77;;
21188;SDS011;39071;52.420;20.896;2022-12-18T04:07:33;2.43;;;1.23;;
21188;SDS011;39071;52.420;20.896;2022-12-18T04:10:00;1.47;;;0.60;;
21188;SDS011;39071;52.420;20.896;2022-12-18T04:12:28;0.77;;;0.77;;
21188;SDS011;39071;52.420;20.896;2022-12-18T04:14:54;1.40;;;1.20;;
21188;SDS011;39071;52.420;20.896;2022-12-18T04:17:20;1.47;;;1.10;;
21188;SDS011;39071;52.420;20.896;2022-12-18T04:19:46;4.00;;;0.77;;
21188;SDS011;39071;52.420;20.896;2022-12-18T04:22:12;1.67;;;1.57;;
21188;SDS011;39071;52.420;20.896;2022-12-18T04:24:38;1.03;;;0.97;;
21188;SDS011;39071;52.420;20.896;2022-12-18T04:27:04;2.47;;;1.27;;
21188;SDS011;39071;52.420;20.896;2022-12-18T04:29:30;5.53;;;2.13;;
21188;SDS011;39071;52.420;20.896;2022-12-18T04:31:55;1.63;;;1.13;;
21188;SDS011;39071;52.420;20.896;2022-12-18T04:34:21;2.83;;;1.17;;
21188;SDS011;39071;52.420;20.896;2022-12-18T04:36:47;1.40;;;1.10;;
21188;SDS011;39071;52.420;20.896;2022-12-18T04:39:13;2.37;;;1.57;;
21188;SDS011;39071;52.420;20.896;2022-12-18T04:41:39;3.13;;;1.53;;
21188;SDS011;39071;52.420;20.896;2022-12-18T04:44:06;0.70;;;0.70;;
21188;SDS011;39071;52.420;20.896;2022-12-18T04:46:32;2.73;;;1.10;;
21188;SDS011;39071;52.420;20.896;2022-12-18T04:48:57;1.40;;;1.10;;
21188;SDS011;39071;52.420;20.896;2022-12-18T04:51:23;1.00;;;0.60;;
21188;SDS011;39071;52.420;20.896;2022-12-18T04:53:49;1.30;;;1.17;;
21188;SDS011;39071;52.420;20.896;2022-12-18T04:56:15;0.37;;;0.37;;
21188;SDS011;39071;52.420;20.896;2022-12-18T04:58:42;5.47;;;1.50;;
21188;SDS011;39071;52.420;20.896;2022-12-18T05:01:09;3.63;;;1.17;;
21188;SDS011;39071;52.420;20.896;2022-12-18T05:03:36;2.30;;;2.10;;
21188;SDS011;39071;52.420;20.896;2022-12-18T05:06:02;2.43;;;2.23;;
21188;SDS011;39071;52.420;20.896;2022-12-18T05:08:29;2.67;;;1.77;;
21188;SDS011;39071;52.420;20.896;2022-12-18T05:11:02;3.77;;;1.97;;
21188;SDS011;39071;52.420;20.896;2022-12-18T05:13:30;1.63;;;1.23;;
21188;SDS011;39071;52.420;20.896;2022-12-18T05:15:59;2.87;;;1.43;;
21188;SDS011;39071;52.420;20.896;2022-12-18T05:18:25;2.20;;;0.97;;
21188;SDS011;39071;52.420;20.896;2022-12-18T05:20:52;5.00;;;1.90;;
21188;SDS011;39071;52.420;20.896;2022-12-18T05:23:18;2.50;;;1.97;;
21188;SDS011;39071;52.420;20.896;2022-12-18T05:28:17;5.87;;;0.90;;
21188;SDS011;39071;52.420;20.896;2022-12-18T05:30:46;3.27;;;1.07;;
21188;SDS011;39071;52.420;20.896;2022-12-18T05:33:14;3.43;;;2.60;;
21188;SDS011;39071;52.420;20.896;2022-12-18T05:35:39;2.47;;;1.27;;
21188;SDS011;39071;52.420;20.896;2022-12-18T05:38:05;6.10;;;2.73;;
21188;SDS011;39071;52.420;20.896;2022-12-18T05:40:31;2.47;;;1.37;;
21188;SDS011;39071;52.420;20.896;2022-12-18T05:42:57;4.73;;;1.87;;
21188;SDS011;39071;52.420;20.896;2022-12-18T05:45:22;1.60;;;1.50;;
21188;SDS011;39071;52.420;20.896;2022-12-18T05:47:48;11.37;;;2.20;;
21188;SDS011;39071;52.420;20.896;2022-12-18T05:50:14;1.17;;;1.07;;
21188;SDS011;39071;52.420;20.896;2022-12-18T05:52:40;5.97;;;2.60;;
21188;SDS011;39071;52.420;20.896;2022-12-18T05:55:06;3.60;;;3.00;;
21188;SDS011;39071;52.420;20.896;2022-12-18T05:57:32;1.27;;;0.93;;
21188;SDS011;39071;52.420;20.896;2022-12-18T05:59:58;1.53;;;1.20;;
21188;SDS011;39071;52.420;20.896;2022-12-18T06:02:23;5.03;;;1.90;;
21188;SDS011;39071;52.420;20.896;2022-12-18T06:04:49;0.97;;;0.87;;
21188;SDS011;39071;52.420;20.896;2022-12-18T06:07:15;2.00;;;1.83;;
21188;SDS011;39071;52.420;20.896;2022-12-18T06:09:41;0.80;;;0.80;;
21188;SDS011;39071;52.420;20.896;2022-12-18T06:12:06;6.37;;;2.30;;
21188;SDS011;39071;52.420;20.896;2022-12-18T06:14:32;1.20;;;0.67;;
21188;SDS011;39071;52.420;20.896;2022-12-18T06:16:58;5.03;;;2.17;;
21188;SDS011;39071;52.420;20.896;2022-12-18T06:19:23;6.50;;;2.33;;
21188;SDS011;39071;52.420;20.896;2022-12-18T06:21:49;8.20;;;4.10;;
21188;SDS011;39071;52.420;20.896;2022-12-18T06:24:15;9.70;;;4.30;;
21188;SDS011;39071;52.420;20.896;2022-12-18T06:26:41;1.77;;;1.57;;
21188;SDS011;39071;52.420;20.896;2022-12-18T06:29:07;3.23;;;2.93;;
21188;SDS011;39071;52.420;20.896;2022-12-18T06:31:33;2.50;;;2.23;;
21188;SDS011;39071;52.420;20.896;2022-12-18T06:33:59;2.17;;;1.20;;
21188;SDS011;39071;52.420;20.896;2022-12-18T06:36:30;5.00;;;2.10;;
21188;SDS011;39071;52.420;20.896;2022-12-18T06:38:56;4.10;;;2.40;;
21188;SDS011;39071;52.420;20.896;2022-12-18T06:41:22;7.93;;;2.20;;
21188;SDS011;39071;52.420;20.896;2022-12-18T06:43:48;2.53;;;1.07;;
21188;SDS011;39071;52.420;20.896;2022-12-18T06:46:14;5.50;;;2.73;;
21188;SDS011;39071;52.420;20.896;2022-12-18T06:48:40;6.00;;;3.53;;
21188;SDS011;39071;52.420;20.896;2022-12-18T06:51:06;9.60;;;3.73;;
21188;SDS011;39071;52.420;20.896;2022-12-18T06:53:32;5.20;;;2.57;;
21188;SDS011;39071;52.420;20.896;2022-12-18T06:56:02;5.97;;;2.47;;
21188;SDS011;39071;52.420;20.896;2022-12-18T06:58:29;2.93;;;1.77;;
21188;SDS011;39071;52.420;20.896;2022-12-18T07:00:59;8.00;;;2.53;;
21188;SDS011;39071;52.420;20.896;2022-12-18T07:03:26;3.67;;;1.37;;
21188;SDS011;39071;52.420;20.896;2022-12-18T07:05:52;13.47;;;3.00;;
21188;SDS011;39071;52.420;20.896;2022-12-18T07:08:18;15.03;;;3.23;;
21188;SDS011;39071;52.420;20.896;2022-12-18T07:10:43;4.33;;;1.53;;
21188;SDS011;39071;52.420;20.896;2022-12-18T07:13:09;6.37;;;2.23;;
21188;SDS011;39071;52.420;20.896;2022-12-18T07:15:35;4.60;;;3.00;;
21188;SDS011;39071;52.420;20.896;2022-12-18T07:18:01;1.80;;;1.43;;
21188;SDS011;39071;52.420;20.896;2022-12-18T07:20:27;8.27;;;3.07;;
21188;SDS011;39071;52.420;20.896;2022-12-18T07:22:53;9.30;;;4.50;;
21188;SDS011;39071;52.420;20.896;2022-12-18T07:25:19;3.30;;;2.77;;
21188;SDS011;39071;52.420;20.896;2022-12-18T07:27:45;5.60;;;2.07;;
21188;SDS011;39071;52.420;20.896;2022-12-18T07:30:10;4.37;;;2.70;;
21188;SDS011;39071;52.420;20.896;2022-12-18T07:32:36;2.63;;;1.23;;
21188;SDS011;39071;52.420;20.896;2022-12-18T07:35:02;6.97;;;2.67;;
21188;SDS011;39071;52.420;20.896;2022-12-18T07:37:28;18.30;;;3.60;;
21188;SDS011;39071;52.420;20.896;2022-12-18T07:39:54;4.60;;;2.20;;
21188;SDS011;39071;52.420;20.896;2022-12-18T07:42:19;10.77;;;2.57;;
21188;SDS011;39071;52.420;20.896;2022-12-18T07:45:00;4.23;;;1.47;;
21188;SDS011;39071;52.420;20.896;2022-12-18T07:47:27;4.20;;;1.53;;
21188;SDS011;39071;52.420;20.896;2022-12-18T07:49:53;4.70;;;1.67;;
21188;SDS011;39071;52.420;20.896;2022-12-18T07:52:19;7.43;;;2.70;;
21188;SDS011;39071;52.420;20.896;2022-12-18T07:54:45;13.03;;;2.67;;
21188;SDS011;39071;52.420;20.896;2022-12-18T07:57:13;3.90;;;2.63;;
21188;SDS011;39071;52.420;20.896;2022-12-18T07:59:40;8.80;;;5.77;;
21188;SDS011;39071;52.420;20.896;2022-12-18T08:02:05;10.13;;;8.03;;
21188;SDS011;39071;52.420;20.896;2022-12-18T08:04:31;6.93;;;4.80;;
21188;SDS011;39071;52.420;20.896;2022-12-18T08:06:57;6.97;;;2.07;;
21188;SDS011;39071;52.420;20.896;2022-12-18T08:09:23;7.33;;;3.70;;
21188;SDS011;39071;52.420;20.896;2022-12-18T08:11:48;9.67;;;3.80;;
21188;SDS011;39071;52.420;20.896;2022-12-18T08:14:14;8.93;;;2.67;;
21188;SDS011;39071;52.420;20.896;2022-12-18T08:16:40;7.27;;;2.90;;
21188;SDS011;39071;52.420;20.896;2022-12-18T08:19:06;5.47;;;3.60;;
21188;SDS011;39071;52.420;20.896;2022-12-18T08:21:31;8.53;;;4.40;;
21188;SDS011;39071;52.420;20.896;2022-12-18T08:23:59;5.27;;;2.17;;
21188;SDS011;39071;52.420;20.896;2022-12-18T08:26:27;8.50;;;4.20;;
21188;SDS011;39071;52.420;20.896;2022-12-18T08:28:54;8.73;;;3.77;;
21188;SDS011;39071;52.420;20.896;2022-12-18T08:31:22;6.97;;;4.37;;
21188;SDS011;39071;52.420;20.896;2022-12-18T08:33:49;13.47;;;4.10;;
21188;SDS011;39071;52.420;20.896;2022-12-18T08:36:16;14.23;;;2.10;;
21188;SDS011;39071;52.420;20.896;2022-12-18T08:38:42;4.90;;;2.33;;
21188;SDS011;39071;52.420;20.896;2022-12-18T08:41:12;7.20;;;3.70;;
21188;SDS011;39071;52.420;20.896;2022-12-18T08:43:40;11.93;;;4.23;;
21188;SDS011;39071;52.420;20.896;2022-12-18T08:46:25;7.43;;;2.43;;
21188;SDS011;39071;52.420;20.896;2022-12-18T08:48:52;6.67;;;4.63;;
21188;SDS011;39071;52.420;20.896;2022-12-18T08:51:20;12.37;;;4.70;;
21188;SDS011;39071;52.420;20.896;2022-12-18T08:53:46;16.73;;;6.83;;
21188;SDS011;39071;52.420;20.896;2022-12-18T08:56:13;17.43;;;6.47;;
21188;SDS011;39071;52.420;20.896;2022-12-18T08:58:39;13.00;;;4.03;;
21188;SDS011;39071;52.420;20.896;2022-12-18T09:01:06;12.43;;;3.73;;
21188;SDS011;39071;52.420;20.896;2022-12-18T09:03:36;11.53;;;4.20;;
21188;SDS011;39071;52.420;20.896;2022-12-18T09:06:02;4.27;;;2.37;;
21188;SDS011;39071;52.420;20.896;2022-12-18T09:08:28;13.80;;;4.17;;
21188;SDS011;39071;52.420;20.896;2022-12-18T09:10:54;12.23;;;4.73;;
21188;SDS011;39071;52.420;20.896;2022-12-18T09:13:20;8.67;;;5.10;;
21188;SDS011;39071;52.420;20.896;2022-12-18T09:15:47;19.47;;;3.90;;
21188;SDS011;39071;52.420;20.896;2022-12-18T09:18:15;9.87;;;4.37;;
21188;SDS011;39071;52.420;20.896;2022-12-18T09:20:42;20.10;;;6.30;;
21188;SDS011;39071;52.420;20.896;2022-12-18T09:23:08;14.17;;;4.07;;
21188;SDS011;39071;52.420;20.896;2022-12-18T09:25:35;12.27;;;5.67;;
21188;SDS011;39071;52.420;20.896;2022-12-18T09:28:03;12.07;;;5.70;;
21188;SDS011;39071;52.420;20.896;2022-12-18T09:30:31;14.80;;;7.17;;
21188;SDS011;39071;52.420;20.896;2022-12-18T09:32:59;13.00;;;4.70;;
21188;SDS011;39071;52.420;20.896;2022-12-18T09:35:25;21.83;;;6.37;;
21188;SDS011;39071;52.420;20.896;2022-12-18T09:37:53;8.53;;;3.73;;
21188;SDS011;39071;52.420;20.896;2022-12-18T09:40:20;16.53;;;4.00;;
21188;SDS011;39071;52.420;20.896;2022-12-18T09:42:50;11.00;;;4.07;;
21188;SDS011;39071;52.420;20.896;2022-12-18T09:45:20;8.30;;;5.57;;
21188;SDS011;39071;52.420;20.896;2022-12-18T09:47:47;7.53;;;4.17;;
21188;SDS011;39071;52.420;20.896;2022-12-18T09:50:19;12.67;;;5.17;;
21188;SDS011;39071;52.420;20.896;2022-12-18T09:52:56;13.47;;;3.53;;
21188;SDS011;39071;52.420;20.896;2022-12-18T09:55:28;16.97;;;3.87;;
21188;SDS011;39071;52.420;20.896;2022-12-18T09:58:00;14.07;;;6.07;;
21188;SDS011;39071;52.420;20.896;2022-12-18T10:00:36;11.50;;;4.27;;
21188;SDS011;39071;52.420;20.896;2022-12-18T10:03:03;16.03;;;4.47;;
21188;SDS011;39071;52.420;20.896;2022-12-18T10:05:37;19.07;;;5.77;;
21188;SDS011;39071;52.420;20.896;2022-12-18T10:08:22;14.30;;;4.70;;
21188;SDS011;39071;52.420;20.896;2022-12-18T10:11:03;7.73;;;4.00;;
21188;SDS011;39071;52.420;20.896;2022-12-18T10:13:57;13.73;;;4.77;;
21188;SDS011;39071;52.420;20.896;2022-12-18T10:16:42;10.10;;;5.43;;
21188;SDS011;39071;52.420;20.896;2022-12-18T10:25:25;12.77;;;3.87;;
21188;SDS011;39071;52.420;20.896;2022-12-18T10:28:15;13.57;;;5.17;;
21188;SDS011;39071;52.420;20.896;2022-12-18T10:30:43;11.60;;;4.07;;
21188;SDS011;39071;52.420;20.896;2022-12-18T10:33:11;16.67;;;5.50;;
21188;SDS011;39071;52.420;20.896;2022-12-18T10:35:45;16.63;;;6.27;;
21188;SDS011;39071;52.420;20.896;2022-12-18T10:40:57;16.77;;;6.63;;
21188;SDS011;39071;52.420;20.896;2022-12-18T10:43:31;10.00;;;4.07;;
21188;SDS011;39071;52.420;20.896;2022-12-18T10:51:28;16.20;;;4.87;;
21188;SDS011;39071;52.420;20.896;2022-12-18T10:54:36;12.27;;;3.97;;
21188;SDS011;39071;52.420;20.896;2022-12-18T10:56:44;7.57;;;3.87;;
21188;SDS011;39071;52.420;20.896;2022-12-18T10:59:11;12.63;;;5.10;;
21188;SDS011;39071;52.420;20.896;2022-12-18T11:04:13;17.07;;;5.43;;
21188;SDS011;39071;52.420;20.896;2022-12-18T11:06:53;12.03;;;4.67;;
21188;SDS011;39071;52.420;20.896;2022-12-18T11:09:33;10.17;;;4.03;;
21188;SDS011;39071;52.420;20.896;2022-12-18T11:12:01;16.63;;;5.90;;
21188;SDS011;39071;52.420;20.896;2022-12-18T11:14:44;14.40;;;4.20;;
21188;SDS011;39071;52.420;20.896;2022-12-18T11:17:28;14.63;;;4.27;;
21188;SDS011;39071;52.420;20.896;2022-12-18T11:23:01;9.53;;;3.27;;
21188;SDS011;39071;52.420;20.896;2022-12-18T11:25:37;10.13;;;3.70;;
21188;SDS011;39071;52.420;20.896;2022-12-18T11:28:04;21.57;;;5.10;;
21188;SDS011;39071;52.420;20.896;2022-12-18T11:30:49;8.90;;;4.70;;
21188;SDS011;39071;52.420;20.896;2022-12-18T11:34:09;10.03;;;4.37;;
21188;SDS011;39071;52.420;20.896;2022-12-18T11:36:53;12.17;;;4.90;;
21188;SDS011;39071;52.420;20.896;2022-12-18T11:39:20;25.60;;;7.47;;
21188;SDS011;39071;52.420;20.896;2022-12-18T11:41:54;11.80;;;5.40;;
21188;SDS011;39071;52.420;20.896;2022-12-18T11:47:22;17.63;;;4.43;;
21188;SDS011;39071;52.420;20.896;2022-12-18T11:49:56;10.10;;;4.37;;
21188;SDS011;39071;52.420;20.896;2022-12-18T11:52:27;12.53;;;4.73;;
21188;SDS011;39071;52.420;20.896;2022-12-18T11:55:07;10.43;;;5.43;;
21188;SDS011;39071;52.420;20.896;2022-12-18T11:57:49;11.67;;;5.27;;
21188;SDS011;39071;52.420;20.896;2022-12-18T12:00:22;11.03;;;5.00;;
21188;SDS011;39071;52.420;20.896;2022-12-18T12:08:31;12.43;;;4.17;;
21188;SDS011;39071;52.420;20.896;2022-12-18T12:11:08;9.37;;;4.37;;
21188;SDS011;39071;52.420;20.896;2022-12-18T12:17:00;16.27;;;5.03;;
21188;SDS011;39071;52.420;20.896;2022-12-18T12:22:30;11.53;;;6.73;;
21188;SDS011;39071;52.420;20.896;2022-12-18T12:25:27;10.17;;;4.87;;
21188;SDS011;39071;52.420;20.896;2022-12-18T12:28:15;17.77;;;5.57;;
21188;SDS011;39071;52.420;20.896;2022-12-18T12:39:30;11.77;;;5.50;;
21188;SDS011;39071;52.420;20.896;2022-12-18T12:42:00;11.97;;;5.33;;
21188;SDS011;39071;52.420;20.896;2022-12-18T12:44:48;9.43;;;4.50;;
21188;SDS011;39071;52.420;20.896;2022-12-18T12:47:20;14.50;;;6.30;;
21188;SDS011;39071;52.420;20.896;2022-12-18T12:49:53;15.27;;;6.50;;
21188;SDS011;39071;52.420;20.896;2022-12-18T12:55:00;15.63;;;5.07;;
21188;SDS011;39071;52.420;20.896;2022-12-18T12:57:36;19.50;;;6.83;;
21188;SDS011;39071;52.420;20.896;2022-12-18T13:00:12;9.50;;;4.83;;
21188;SDS011;39071;52.420;20.896;2022-12-18T13:05:34;12.20;;;6.13;;
21188;SDS011;39071;52.420;20.896;2022-12-18T13:08:25;17.20;;;5.93;;
21188;SDS011;39071;52.420;20.896;2022-12-18T13:10:53;13.10;;;4.30;;
21188;SDS011;39071;52.420;20.896;2022-12-18T13:13:52;16.80;;;6.27;;
21188;SDS011;39071;52.420;20.896;2022-12-18T13:16:21;9.63;;;5.67;;
21188;SDS011;39071;52.420;20.896;2022-12-18T13:18:52;9.77;;;5.33;;
21188;SDS011;39071;52.420;20.896;2022-12-18T13:21:25;23.87;;;6.00;;
21188;SDS011;39071;52.420;20.896;2022-12-18T13:23:54;22.10;;;4.97;;
21188;SDS011;39071;52.420;20.896;2022-12-18T13:28:55;10.70;;;4.63;;
21188;SDS011;39071;52.420;20.896;2022-12-18T13:37:51;13.87;;;6.17;;
21188;SDS011;39071;52.420;20.896;2022-12-18T13:39:55;6.67;;;4.13;;
21188;SDS011;39071;52.420;20.896;2022-12-18T13:42:31;9.03;;;4.87;;
21188;SDS011;39071;52.420;20.896;2022-12-18T13:45:42;19.20;;;5.97;;
21188;SDS011;39071;52.420;20.896;2022-12-18T13:48:23;20.87;;;5.20;;
21188;SDS011;39071;52.420;20.896;2022-12-18T13:50:52;23.53;;;9.23;;
21188;SDS011;39071;52.420;20.896;2022-12-18T13:53:28;12.10;;;5.53;;
21188;SDS011;39071;52.420;20.896;2022-12-18T13:55:58;21.23;;;9.07;;
21188;SDS011;39071;52.420;20.896;2022-12-18T13:58:24;26.23;;;5.30;;
21188;SDS011;39071;52.420;20.896;2022-12-18T14:00:49;20.03;;;6.83;;
21188;SDS011;39071;52.420;20.896;2022-12-18T14:03:17;22.23;;;6.33;;
21188;SDS011;39071;52.420;20.896;2022-12-18T14:05:59;18.67;;;5.70;;
21188;SDS011;39071;52.420;20.896;2022-12-18T14:08:36;10.10;;;4.37;;
21188;SDS011;39071;52.420;20.896;2022-12-18T14:11:06;11.67;;;3.60;;
21188;SDS011;39071;52.420;20.896;2022-12-18T14:13:42;11.57;;;3.90;;
21188;SDS011;39071;52.420;20.896;2022-12-18T14:16:11;14.77;;;5.50;;
21188;SDS011;39071;52.420;20.896;2022-12-18T14:21:21;14.80;;;5.50;;
21188;SDS011;39071;52.420;20.896;2022-12-18T14:24:02;12.77;;;4.37;;
21188;SDS011;39071;52.420;20.896;2022-12-18T14:26:38;18.60;;;5.10;;
21188;SDS011;39071;52.420;20.896;2022-12-18T14:29:23;15.30;;;5.30;;
21188;SDS011;39071;52.420;20.896;2022-12-18T14:37:17;26.20;;;6.07;;
21188;SDS011;39071;52.420;20.896;2022-12-18T14:39:57;16.03;;;5.33;;
21188;SDS011;39071;52.420;20.896;2022-12-18T14:42:30;10.23;;;6.30;;
21188;SDS011;39071;52.420;20.896;2022-12-18T14:47:59;20.57;;;9.47;;
21188;SDS011;39071;52.420;20.896;2022-12-18T14:50:26;25.83;;;7.20;;
21188;SDS011;39071;52.420;20.896;2022-12-18T14:52:52;21.73;;;5.40;;
21188;SDS011;39071;52.420;20.896;2022-12-18T14:55:18;15.47;;;3.97;;
21188;SDS011;39071;52.420;20.896;2022-12-18T14:57:48;9.37;;;5.07;;
21188;SDS011;39071;52.420;20.896;2022-12-18T15:00:19;10.87;;;5.17;;
21188;SDS011;39071;52.420;20.896;2022-12-18T15:02:47;12.23;;;4.00;;
21188;SDS011;39071;52.420;20.896;2022-12-18T15:05:25;15.50;;;6.10;;
21188;SDS011;39071;52.420;20.896;2022-12-18T15:07:53;15.77;;;4.97;;
21188;SDS011;39071;52.420;20.896;2022-12-18T15:10:21;9.70;;;5.27;;
21188;SDS011;39071;52.420;20.896;2022-12-18T15:17:59;12.83;;;4.20;;
21188;SDS011;39071;52.420;20.896;2022-12-18T15:20:26;14.37;;;4.13;;
21188;SDS011;39071;52.420;20.896;2022-12-18T15:22:52;12.50;;;4.47;;
21188;SDS011;39071;52.420;20.896;2022-12-18T15:25:38;12.47;;;5.50;;
21188;SDS011;39071;52.420;20.896;2022-12-18T15:28:04;7.10;;;3.83;;
21188;SDS011;39071;52.420;20.896;2022-12-18T15:30:59;16.27;;;4.93;;
21188;SDS011;39071;52.420;20.896;2022-12-18T15:33:26;11.70;;;3.53;;
21188;SDS011;39071;52.420;20.896;2022-12-18T15:36:02;12.07;;;4.43;;
21188;SDS011;39071;52.420;20.896;2022-12-18T15:38:29;16.40;;;5.63;;
21188;SDS011;39071;52.420;20.896;2022-12-18T15:40:55;6.13;;;4.17;;
21188;SDS011;39071;52.420;20.896;2022-12-18T15:43:22;20.97;;;6.33;;
21188;SDS011;39071;52.420;20.896;2022-12-18T15:45:59;16.10;;;5.53;;
21188;SDS011;39071;52.420;20.896;2022-12-18T15:48:56;25.37;;;5.57;;
21188;SDS011;39071;52.420;20.896;2022-12-18T15:51:23;11.77;;;5.00;;
21188;SDS011;39071;52.420;20.896;2022-12-18T15:54:01;16.67;;;6.23;;
21188;SDS011;39071;52.420;20.896;2022-12-18T15:56:29;11.67;;;5.20;;
21188;SDS011;39071;52.420;20.896;2022-12-18T15:59:15;12.67;;;4.90;;
21188;SDS011;39071;52.420;20.896;2022-12-18T16:01:46;10.10;;;4.47;;
21188;SDS011;39071;52.420;20.896;2022-12-18T16:04:15;11.17;;;4.20;;
21188;SDS011;39071;52.420;20.896;2022-12-18T16:06:45;10.53;;;4.53;;
21188;SDS011;39071;52.420;20.896;2022-12-18T16:09:10;17.17;;;5.47;;
21188;SDS011;39071;52.420;20.896;2022-12-18T16:11:37;12.57;;;3.37;;
21188;SDS011;39071;52.420;20.896;2022-12-18T16:14:23;23.60;;;11.37;;
21188;SDS011;39071;52.420;20.896;2022-12-18T16:16:58;7.90;;;4.60;;
21188;SDS011;39071;52.420;20.896;2022-12-18T16:19:26;11.10;;;5.03;;
21188;SDS011;39071;52.420;20.896;2022-12-18T16:21:53;14.00;;;4.40;;
21188;SDS011;39071;52.420;20.896;2022-12-18T16:24:22;12.73;;;4.03;;
21188;SDS011;39071;52.420;20.896;2022-12-18T16:26:50;8.07;;;3.93;;
21188;SDS011;39071;52.420;20.896;2022-12-18T16:29:17;13.20;;;4.90;;
21188;SDS011;39071;52.420;20.896;2022-12-18T16:31:44;9.37;;;3.43;;
21188;SDS011;39071;52.420;20.896;2022-12-18T16:34:11;17.40;;;5.90;;